Time;durP1;ratioP1;P1;durP2;ratioP2;P2;SDS_P1;SDS_P2;PMS_P1;PMS_P2;Temp;Humidity;BMP_temperature;BMP_pressure;BME280_temperature;BME280_humidity;BME280_pressure;Samples;Min_cycle;Max_cycle;Signal;HPM_P1;HPM_P2
2022/05/22 00:00:59;;;;;;;7.40;1.43;;;11.70;92.70;;;11.71;65.13;101167.66;5065211;28;20466;-72
2022/05/22 00:03:28;;;;;;;1.60;1.10;;;11.70;92.70;;;11.70;65.21;101166.00;5062519;28;20424;-71
2022/05/22 00:05:57;;;;;;;5.30;1.23;;;11.70;93.10;;;11.67;65.28;101169.09;5055305;28;20490;-70
2022/05/22 00:08:26;;;;;;;3.63;1.20;;;11.60;93.80;;;11.64;65.42;101169.53;5055341;28;20423;-70
2022/05/22 00:10:58;;;;;;;1.80;1.17;;;11.60;94.30;;;11.56;65.61;101164.28;5055005;28;20439;-70
2022/05/22 00:13:27;;;;;;;3.47;1.57;;;11.60;94.90;;;11.54;65.94;101169.06;5054795;28;20419;-70
2022/05/22 00:18:44;;;;;;;4.57;1.70;;;11.60;97.00;;;11.47;66.51;101159.22;5053894;28;20467;-71
2022/05/22 00:21:13;;;;;;;5.10;1.17;;;11.60;97.90;;;11.51;66.43;101166.75;5019520;28;20871;-73
2022/05/22 00:23:44;;;;;;;1.80;1.30;;;11.50;98.30;;;11.55;66.43;101170.72;5055180;28;20495;-72
2022/05/22 00:26:13;;;;;;;3.17;1.80;;;11.50;98.50;;;11.63;66.69;101165.13;5076858;28;20410;-72
2022/05/22 00:28:43;;;;;;;2.70;1.63;;;11.60;99.70;;;11.74;66.28;101151.03;5083980;28;20417;-71
2022/05/22 00:31:13;;;;;;;2.60;0.97;;;11.70;98.70;;;11.76;65.68;101154.34;5057485;28;20471;-71
2022/05/22 00:33:42;;;;;;;6.53;1.90;;;11.70;97.20;;;11.76;65.80;101148.94;5071946;28;20738;-70
2022/05/22 00:36:11;;;;;;;5.40;1.77;;;11.70;97.30;;;11.76;66.20;101157.06;5073109;28;20474;-70
2022/05/22 00:38:40;;;;;;;1.60;1.20;;;11.70;97.80;;;11.73;66.47;101157.47;5052821;28;20538;-70
2022/05/22 00:41:10;;;;;;;5.43;2.10;;;11.70;98.30;;;11.75;66.08;101150.00;5044166;28;20464;-71
2022/05/22 00:43:43;;;;;;;3.90;1.83;;;11.70;97.90;;;11.70;66.43;101154.31;5035219;28;20439;-71
2022/05/22 00:46:16;;;;;;;7.83;1.43;;;11.70;98.40;;;11.64;66.68;101144.28;5051009;28;20965;-71
2022/05/22 00:48:49;;;;;;;1.77;1.63;;;11.70;99.00;;;11.51;66.94;101155.06;5074254;28;20417;-71
2022/05/22 00:51:22;;;;;;;2.00;1.37;;;11.60;99.30;;;11.50;67.16;101151.53;5074426;28;20513;-71
2022/05/22 00:53:57;;;;;;;2.13;1.67;;;11.50;99.90;;;11.49;67.18;101149.84;5054757;28;20881;-71
2022/05/22 00:56:36;;;;;;;2.17;1.40;;;11.40;99.90;;;11.52;66.77;101152.16;5054370;28;20554;-72
2022/05/22 00:59:11;;;;;;;3.97;2.27;;;11.50;99.90;;;11.54;67.18;101147.38;5057778;28;20490;-70
2022/05/22 01:01:43;;;;;;;3.93;1.17;;;11.40;99.90;;;11.46;67.19;101146.72;5074175;28;20533;-71
2022/05/22 01:04:22;;;;;;;4.97;2.30;;;11.50;99.90;;;11.39;68.02;101149.38;5049120;28;20447;-71
2022/05/22 01:06:53;;;;;;;5.53;1.67;;;11.40;99.90;;;11.37;67.79;101151.47;5036445;28;20447;-70
2022/05/22 01:09:22;;;;;;;3.50;1.63;;;11.40;99.90;;;11.34;67.83;101143.72;5036259;28;20430;-72
2022/05/22 01:11:59;;;;;;;4.00;2.17;;;11.40;99.90;;;11.22;68.18;101143.47;5053842;28;20455;-71
2022/05/22 01:14:30;;;;;;;3.97;1.80;;;11.20;99.90;;;11.15;68.86;101144.47;5036261;28;20459;-71
2022/05/22 01:17:06;;;;;;;2.80;1.43;;;11.20;99.90;;;11.09;68.84;101151.50;5029024;28;20439;-71
2022/05/22 01:19:37;;;;;;;1.55;1.10;;;11.20;99.90;;;11.03;69.33;101148.78;5035463;28;20516;-72
2022/05/22 01:22:13;;;;;;;1.60;1.50;;;11.10;99.90;;;11.06;69.46;101154.63;5035729;28;20560;-70
2022/05/22 01:24:44;;;;;;;4.30;2.87;;;11.10;99.90;;;10.97;69.88;101152.28;5053205;28;20487;-70
2022/05/22 01:27:17;;;;;;;3.27;1.67;;;11.00;99.90;;;10.79;70.58;101164.47;5035634;28;20473;-70
2022/05/22 01:30:06;;;;;;;2.40;1.50;;;10.90;99.90;;;10.77;70.46;101155.69;5017454;28;20449;-70
2022/05/22 01:32:38;;;;;;;7.78;1.40;;;10.90;99.90;;;10.72;71.29;101162.72;5015937;28;20454;-71
2022/05/22 01:35:11;;;;;;;4.15;2.25;;;10.80;99.90;;;10.72;71.38;101149.19;5016099;28;20530;-71
2022/05/22 01:37:42;;;;;;;8.50;1.40;;;10.80;99.90;;;10.73;71.05;101146.28;5031901;28;20262;-71
2022/05/22 01:40:14;;;;;;;3.87;1.57;;;10.80;99.90;;;10.63;71.65;101151.22;5049098;28;20467;-71
2022/05/22 01:42:44;;;;;;;5.32;1.42;;;10.70;99.90;;;10.65;71.55;101149.13;5031694;28;20444;-70
2022/05/22 01:45:17;;;;;;;4.38;1.23;;;10.70;99.90;;;10.64;71.56;101152.03;5027124;28;20243;-71
2022/05/22 01:47:49;;;;;;;3.42;1.33;;;10.70;99.90;;;10.60;71.78;101151.56;5052275;28;20262;-71
2022/05/22 01:50:21;;;;;;;3.97;2.78;;;10.70;99.90;;;10.51;71.96;101150.06;5018440;28;20296;-71
2022/05/22 01:52:52;;;;;;;4.13;1.95;;;10.60;99.90;;;10.42;72.68;101145.81;5044444;28;20456;-71
2022/05/22 01:55:22;;;;;;;4.28;1.33;;;10.60;99.90;;;10.50;72.53;101148.41;5036453;28;20197;-70
2022/05/22 01:57:51;;;;;;;11.85;2.15;;;10.60;99.90;;;10.56;72.23;101147.59;5032136;28;20202;-71
2022/05/22 02:00:26;;;;;;;7.32;2.00;;;10.60;99.90;;;10.52;72.53;101153.59;5036659;28;20211;-70
2022/05/22 02:02:58;;;;;;;3.35;1.40;;;10.60;99.90;;;10.63;72.39;101155.78;5072688;28;20160;-71
2022/05/22 02:05:33;;;;;;;4.03;1.45;;;10.60;99.90;;;10.59;72.20;101151.78;5055284;28;20188;-71
2022/05/22 02:08:22;;;;;;;3.75;1.50;;;10.60;99.90;;;10.61;72.65;101158.66;5054655;28;20190;-71
2022/05/22 02:10:59;;;;;;;4.10;1.98;;;10.60;99.90;;;10.76;72.03;101156.72;5054938;28;20633;-71
2022/05/22 02:13:32;;;;;;;2.85;1.30;;;10.70;99.90;;;10.76;71.76;101147.75;5043682;28;20204;-72
2022/05/22 02:16:01;;;;;;;3.45;2.42;;;10.70;99.90;;;10.70;72.23;101143.97;5014679;28;20676;-72
2022/05/22 02:18:33;;;;;;;11.15;2.10;;;10.70;99.90;;;10.77;71.98;101147.56;5015429;28;20205;-71
2022/05/22 02:21:03;;;;;;;4.32;2.75;;;10.70;99.90;;;10.79;72.23;101147.38;5015064;28;20209;-71
2022/05/22 02:23:36;;;;;;;3.70;1.50;;;10.80;99.90;;;10.81;72.08;101148.00;5015314;28;20737;-71
2022/05/22 02:26:10;;;;;;;3.97;1.40;;;10.70;99.90;;;10.74;72.16;101147.97;5062837;28;20230;-72
2022/05/22 02:28:42;;;;;;;2.42;1.42;;;10.80;99.90;;;10.78;72.07;101146.53;5035425;28;20443;-71
2022/05/22 02:31:11;;;;;;;9.02;1.70;;;10.80;99.90;;;10.88;71.94;101143.47;5051281;28;20221;-71
2022/05/22 02:33:42;;;;;;;5.13;1.70;;;10.80;99.90;;;10.85;71.87;101147.41;5034157;28;20706;-70
2022/05/22 02:36:14;;;;;;;5.93;1.40;;;10.90;99.90;;;10.85;72.12;101139.28;5034456;28;20575;-71
2022/05/22 02:38:48;;;;;;;2.73;1.57;;;10.80;99.90;;;10.84;72.21;101140.31;5034526;28;20218;-71
2022/05/22 02:41:20;;;;;;;4.10;1.40;;;10.80;99.90;;;10.83;72.37;101141.38;5067508;28;20973;-71
2022/05/22 02:43:57;;;;;;;4.20;1.47;;;10.80;99.90;;;10.67;73.01;101141.66;5071148;28;20660;-71
2022/05/22 02:46:27;;;;;;;4.50;1.65;;;10.70;99.90;;;10.77;72.63;101136.75;5043517;28;20533;-71
2022/05/22 02:48:57;;;;;;;4.28;1.85;;;10.70;99.90;;;10.68;72.99;101137.94;5050660;28;20183;-71
2022/05/22 02:51:36;;;;;;;1.80;1.15;;;10.70;99.90;;;10.70;73.10;101135.84;5051317;28;20227;-72
2022/05/22 02:54:07;;;;;;;5.88;2.03;;;10.70;99.90;;;10.69;73.24;101134.19;5066681;28;20266;-72
2022/05/22 02:56:42;;;;;;;5.78;1.60;;;10.70;99.90;;;10.60;73.56;101139.94;5072005;28;20241;-71
2022/05/22 02:59:12;;;;;;;2.88;1.73;;;10.70;99.90;;;10.51;73.78;101130.28;5072035;28;20677;-70
2022/05/22 03:01:50;;;;;;;4.30;1.73;;;10.60;99.90;;;10.67;73.58;101136.25;5070302;28;20227;-71
2022/05/22 03:04:20;;;;;;;5.90;1.90;;;10.70;99.90;;;10.57;73.90;101133.03;5034249;28;20196;-70
2022/05/22 03:06:50;;;;;;;2.10;1.67;;;10.60;99.90;;;10.49;74.31;101130.50;5034053;28;20197;-71
2022/05/22 03:09:22;;;;;;;2.63;2.00;;;10.60;99.90;;;10.41;74.52;101134.16;5051980;28;20185;-70
2022/05/22 03:11:53;;;;;;;2.00;1.63;;;10.50;99.90;;;10.42;74.81;101138.53;5047365;28;20310;-71
2022/05/22 03:14:22;;;;;;;2.38;1.65;;;10.50;99.90;;;10.48;74.78;101136.09;5038230;28;20192;-71
2022/05/22 03:16:53;;;;;;;3.38;1.83;;;10.40;99.90;;;10.46;74.64;101133.56;5050347;28;20276;-70
2022/05/22 03:19:31;;;;;;;2.85;1.92;;;10.50;99.90;;;10.56;74.62;101131.38;5033923;28;20296;-71
2022/05/22 03:22:00;;;;;;;2.03;1.50;;;10.50;99.90;;;10.67;74.08;101136.25;5033245;28;20217;-71
2022/05/22 03:24:32;;;;;;;3.23;1.60;;;10.60;99.90;;;10.65;74.40;101141.00;5046843;28;20447;-71
2022/05/22 03:27:03;;;;;;;2.15;1.10;;;10.60;99.90;;;10.68;74.29;101147.91;5019755;28;20444;-71
2022/05/22 03:29:33;;;;;;;4.40;1.70;;;10.60;99.90;;;10.86;74.00;101142.81;5036773;28;20264;-71
2022/05/22 03:32:03;;;;;;;4.43;2.00;;;10.70;99.90;;;11.15;72.70;101144.47;5035211;28;20209;-72
2022/05/22 03:34:32;;;;;;;5.80;1.45;;;10.80;99.90;;;11.18;72.93;101152.22;5051094;28;20457;-71
2022/05/22 03:37:04;;;;;;;4.90;1.50;;;10.90;99.90;;;11.66;71.70;101143.06;5035940;28;20189;-71
2022/05/22 03:39:35;;;;;;;2.85;1.35;;;11.10;99.90;;;12.05;70.11;101150.47;5018072;28;20456;-70
2022/05/22 03:42:07;;;;;;;8.63;1.50;;;11.40;99.90;;;12.69;67.88;101144.47;5034133;28;20232;-72
2022/05/22 03:44:38;;;;;;;17.23;2.53;;;11.80;99.90;;;12.75;67.42;101148.22;5060543;28;20426;-70
2022/05/22 03:47:08;;;;;;;5.87;1.93;;;12.00;99.90;;;12.81;67.55;101150.09;5051152;28;20447;-70
2022/05/22 03:49:54;;;;;;;5.70;1.63;;;12.10;99.90;;;12.82;67.14;101149.06;5033806;28;20539;-70
2022/05/22 03:52:24;;;;;;;6.33;1.70;;;12.20;99.90;;;13.13;66.16;101142.97;5017449;28;20471;-70
2022/05/22 03:54:56;;;;;;;7.30;2.50;;;12.30;99.90;;;13.42;65.11;101148.72;5048641;28;20484;-70
2022/05/22 03:57:24;;;;;;;2.20;1.60;;;12.50;99.90;;;13.90;63.78;101142.88;5036724;28;20454;-71
2022/05/22 03:59:53;;;;;;;2.33;2.07;;;12.80;99.90;;;14.08;63.17;101140.25;5036851;28;21054;-72
2022/05/22 04:02:22;;;;;;;4.70;2.10;;;12.90;99.90;;;14.34;62.88;101140.06;5042798;28;20512;-70
2022/05/22 04:04:52;;;;;;;2.30;2.00;;;13.10;99.90;;;14.65;61.47;101138.38;5032757;28;20494;-70
2022/05/22 04:07:24;;;;;;;9.23;1.73;;;13.40;95.60;;;14.93;60.34;101138.75;5036576;28;20431;-70
2022/05/22 04:09:59;;;;;;;10.33;1.97;;;13.60;93.10;;;15.13;59.81;101144.00;5054366;28;20438;-71
2022/05/22 04:12:37;;;;;;;4.13;1.90;;;13.80;90.10;;;14.93;59.93;101141.47;5048833;28;20457;-71
2022/05/22 04:15:13;;;;;;;7.70;1.93;;;13.90;86.70;;;14.65;60.83;101143.84;5016520;28;20432;-70
2022/05/22 04:17:42;;;;;;;5.53;2.07;;;13.80;84.50;;;14.33;61.78;101153.88;5034531;28;20454;-70
2022/05/22 04:20:19;;;;;;;2.63;1.73;;;13.70;86.40;;;14.21;62.35;101152.94;5016250;28;20463;-70
2022/05/22 04:25:37;;;;;;;9.73;2.10;;;13.40;92.60;;;15.18;59.94;101158.63;5067198;28;20497;-72
2022/05/22 04:28:06;;;;;;;8.10;1.57;;;13.50;92.70;;;15.97;57.38;101154.97;5036418;28;20462;-71
2022/05/22 04:30:35;;;;;;;4.47;1.83;;;14.10;82.90;;;17.51;53.65;101147.50;5037176;28;20998;-71
2022/05/22 04:33:08;;;;;;;4.13;1.60;;;14.90;65.40;;;18.21;50.88;101153.56;5023407;28;20448;-71
2022/05/22 04:35:38;;;;;;;4.33;1.33;;;15.70;49.20;;;18.33;51.39;101150.75;5015731;28;20440;-71
2022/05/22 04:38:08;;;;;;;2.70;1.40;;;16.00;40.20;;;18.16;50.94;101161.69;5016794;28;20428;-71
2022/05/22 04:40:40;;;;;;;3.30;1.40;;;16.20;33.20;;;18.03;51.74;101161.97;5019269;28;20478;-71
2022/05/22 04:43:11;;;;;;;4.57;1.67;;;16.30;33.00;;;18.21;51.01;101172.72;5021372;28;20462;-70
2022/05/22 04:45:41;;;;;;;1.83;1.20;;;16.50;29.90;;;18.14;51.15;101169.31;5053021;28;20857;-71
2022/05/22 04:48:20;;;;;;;5.80;2.13;;;16.50;28.70;;;17.27;52.67;101176.81;5039035;28;20937;-71
2022/05/22 04:50:56;;;;;;;2.40;1.30;;;16.30;28.40;;;16.84;54.03;101169.81;5052597;28;20554;-72
2022/05/22 04:53:34;;;;;;;5.10;1.77;;;16.10;29.70;;;17.66;52.68;101162.38;5072683;28;20438;-71
2022/05/22 04:56:11;;;;;;;6.10;1.50;;;16.10;31.00;;;17.98;51.42;101170.09;5068859;28;20520;-72
2022/05/22 04:58:58;;;;;;;2.50;2.00;;;16.50;28.70;;;17.07;53.87;101179.06;5066487;28;20489;-70
2022/05/22 05:01:29;;;;;;;4.07;2.13;;;16.20;30.10;;;16.47;55.46;101171.00;5048354;28;20471;-71
2022/05/22 05:04:11;;;;;;;2.50;1.27;;;15.60;33.40;;;15.42;58.32;101175.97;5032522;28;20410;-70
2022/05/22 05:07:09;;;;;;;3.90;2.40;;;14.90;40.00;;;14.76;60.63;101179.34;5036254;28;20427;-71
2022/05/22 05:09:59;;;;;;;5.53;2.10;;;14.50;50.80;;;14.24;62.15;101177.81;5070891;28;20937;-72
2022/05/22 05:12:54;;;;;;;3.10;2.23;;;14.20;60.00;;;14.78;61.45;101170.94;5072765;28;20437;-71
2022/05/22 05:15:32;;;;;;;5.30;2.20;;;13.90;78.80;;;15.44;59.32;101173.03;5055389;28;20464;-71
2022/05/22 05:18:19;;;;;;;7.50;2.20;;;14.30;72.20;;;15.73;58.45;101169.56;5070568;28;20446;-72
2022/05/22 05:20:51;;;;;;;13.83;2.23;;;14.60;64.60;;;15.47;59.05;101167.09;5066636;28;20485;-70
2022/05/22 05:23:20;;;;;;;2.73;1.77;;;14.80;59.80;;;15.34;59.56;101161.81;5020842;28;20448;-70
2022/05/22 05:26:01;;;;;;;10.20;1.97;;;14.60;60.60;;;15.02;60.31;101164.66;5041855;28;20465;-71
2022/05/22 05:28:32;;;;;;;3.67;2.20;;;14.40;64.30;;;14.17;62.75;101166.16;5051853;28;20446;-71
2022/05/22 05:31:03;;;;;;;4.63;1.40;;;14.00;72.20;;;14.01;63.61;101168.56;5051056;28;20471;-71
2022/05/22 05:33:34;;;;;;;4.90;2.07;;;13.80;83.20;;;13.72;64.21;101164.50;5035332;28;20450;-70
2022/05/22 05:36:26;;;;;;;4.20;2.10;;;13.50;89.90;;;13.47;64.81;101167.97;5010311;28;20438;-71
2022/05/22 05:39:07;;;;;;;4.90;2.13;;;13.40;93.50;;;13.12;66.28;101171.22;5053199;28;20426;-72
2022/05/22 05:41:45;;;;;;;9.10;3.20;;;13.10;97.80;;;13.32;65.79;101167.38;5073835;23;20452;-71
2022/05/22 05:44:18;;;;;;;6.50;1.80;;;13.10;99.90;;;13.51;65.71;101175.72;5046175;28;20937;-71
2022/05/22 05:46:54;;;;;;;3.00;1.80;;;13.10;99.90;;;12.97;66.96;101179.56;5020828;28;20432;-72
2022/05/22 05:49:28;;;;;;;5.80;2.00;;;13.00;99.90;;;12.68;68.10;101180.84;5044193;28;20451;-71
2022/05/22 05:52:17;;;;;;;10.20;2.40;;;12.70;99.90;;;13.05;67.39;101179.34;5025241;28;20803;-71
2022/05/22 05:55:07;;;;;;;3.33;1.80;;;12.90;99.90;;;13.52;66.49;101180.91;5035529;28;20460;-71
2022/05/22 05:57:51;;;;;;;6.57;2.07;;;13.00;99.90;;;13.72;65.51;101178.13;5044456;28;20414;-71
2022/05/22 06:00:24;;;;;;;10.80;2.90;;;13.30;99.90;;;13.83;65.02;101185.59;5015705;28;20424;-71
2022/05/22 06:02:53;;;;;;;14.20;2.60;;;13.50;99.80;;;13.91;65.11;101171.75;5032908;28;20530;-70
2022/05/22 06:05:23;;;;;;;6.90;1.90;;;13.50;99.40;;;13.86;65.14;101177.84;5029051;28;20439;-72
2022/05/22 06:07:54;;;;;;;4.07;2.10;;;13.60;97.60;;;14.22;64.32;101179.94;5034473;28;20556;-71
2022/05/22 06:10:27;;;;;;;2.67;1.60;;;13.80;97.80;;;14.05;64.00;101184.22;5041983;28;20506;-70
2022/05/22 06:13:13;;;;;;;11.80;2.53;;;13.80;94.20;;;14.00;64.51;101175.88;5039798;28;20517;-71
2022/05/22 06:15:47;;;;;;;3.93;2.03;;;13.80;95.50;;;14.20;64.67;101181.22;5047474;28;20479;-71
2022/05/22 06:18:16;;;;;;;9.53;2.70;;;13.90;95.80;;;14.00;64.33;101178.59;5033007;28;20881;-71
2022/05/22 06:20:45;;;;;;;5.00;2.00;;;13.90;93.30;;;14.31;63.60;101178.63;5048059;28;20475;-72
2022/05/22 06:23:21;;;;;;;6.23;2.07;;;14.00;93.50;;;14.35;63.43;101192.63;5039706;28;20475;-71
2022/05/22 06:26:18;;;;;;;5.50;2.97;;;14.10;91.60;;;14.43;63.39;101180.66;5022506;28;20470;-70
2022/05/22 06:29:06;;;;;;;8.37;1.93;;;14.20;92.10;;;15.15;62.12;101180.84;5042848;28;20490;-72
2022/05/22 06:31:51;;;;;;;5.10;1.87;;;14.50;91.70;;;15.07;61.81;101178.44;5031317;28;20558;-73
2022/05/22 06:34:49;;;;;;;4.77;1.43;;;14.80;81.50;;;15.50;60.84;101178.38;5024311;28;20441;-73
2022/05/22 06:37:50;;;;;;;4.67;1.90;;;15.10;75.10;;;15.11;61.09;101173.34;5018812;28;20502;-71
2022/05/22 06:40:44;;;;;;;3.63;2.13;;;15.10;67.50;;;14.99;61.70;101180.63;5028433;28;20471;-72
2022/05/22 06:43:37;;;;;;;9.63;2.70;;;14.90;70.80;;;15.02;61.97;101178.28;5027765;28;20719;-74
2022/05/22 06:46:30;;;;;;;3.10;2.20;;;14.80;73.50;;;15.22;61.00;101176.19;5032757;28;20979;-73
2022/05/22 06:49:33;;;;;;;2.93;1.63;;;14.90;70.60;;;14.81;62.20;101172.41;5006140;28;20489;-71
2022/05/22 06:52:16;;;;;;;5.70;1.83;;;14.70;74.40;;;15.27;61.58;101180.13;5017020;28;20833;-72
2022/05/22 06:54:52;;;;;;;1.70;1.60;;;14.70;78.20;;;15.47;60.67;101173.41;5028200;28;20447;-73
2022/05/22 06:57:49;;;;;;;3.00;1.57;;;15.00;74.40;;;15.53;60.29;101175.25;5035857;28;20440;-74
2022/05/22 07:00:24;;;;;;;6.53;1.90;;;15.20;67.70;;;15.14;61.20;101179.22;5026681;28;20911;-73
2022/05/22 07:03:11;;;;;;;5.90;1.70;;;15.10;65.80;;;14.92;62.19;101174.38;5036291;28;20831;-74
2022/05/22 07:05:57;;;;;;;4.13;1.90;;;14.90;71.10;;;14.83;62.78;101176.56;5040352;28;20493;-71
2022/05/22 07:08:48;;;;;;;3.30;2.33;;;14.70;75.90;;;15.76;60.54;101166.34;5029198;28;20868;-72
2022/05/22 07:11:54;;;;;;;3.73;2.17;;;15.20;74.10;;;15.85;59.29;101178.63;5021223;28;20477;-71
2022/05/22 07:14:42;;;;;;;2.27;1.90;;;15.50;59.40;;;15.18;61.00;101171.41;5038479;28;20446;-75
2022/05/22 07:17:16;;;;;;;3.43;2.00;;;15.20;59.70;;;15.29;61.31;101164.38;5041412;28;20435;-71
2022/05/22 07:20:03;;;;;;;6.53;2.00;;;15.20;64.30;;;15.93;60.04;101164.66;5036955;28;20820;-73
2022/05/22 07:22:45;;;;;;;4.03;2.20;;;15.40;65.60;;;16.46;59.00;101161.97;5031925;28;20567;-70
2022/05/22 07:25:26;;;;;;;3.70;1.60;;;15.80;59.40;;;16.11;57.93;101162.94;5034695;28;20462;-72
2022/05/22 07:28:05;;;;;;;3.10;1.60;;;15.90;49.10;;;15.83;58.93;101164.34;5045986;28;20448;-73
2022/05/22 07:30:57;;;;;;;4.07;1.50;;;15.70;51.10;;;15.22;60.85;101165.28;5012712;28;20487;-73
2022/05/22 07:33:45;;;;;;;5.00;1.80;;;15.20;56.20;;;15.29;61.12;101161.66;5034415;28;20513;-72
2022/05/22 07:36:35;;;;;;;5.90;2.17;;;15.10;60.40;;;15.63;61.03;101159.19;5015872;28;20539;-72
2022/05/22 07:39:41;;;;;;;2.53;1.40;;;15.20;70.40;;;15.65;60.10;101159.78;5034559;28;20451;-71
2022/05/22 07:42:31;;;;;;;6.03;1.80;;;15.40;59.60;;;15.51;59.89;101160.16;5024995;28;20471;-72
2022/05/22 07:45:37;;;;;;;2.33;1.20;;;15.40;57.10;;;15.17;60.37;101165.13;5018908;28;20429;-72
2022/05/22 07:48:24;;;;;;;5.47;2.03;;;15.10;56.20;;;14.83;61.97;101160.22;5033095;28;20442;-71
2022/05/22 07:51:17;;;;;;;3.87;1.93;;;14.80;62.90;;;14.61;62.65;101157.06;5023520;28;20500;-72
2022/05/22 07:53:58;;;;;;;3.23;1.47;;;14.60;69.00;;;15.10;61.75;101152.63;5040671;28;20457;-73
2022/05/22 07:56:54;;;;;;;3.10;1.30;;;14.80;72.00;;;14.79;62.14;101156.28;5038788;28;20474;-72
2022/05/22 07:59:44;;;;;;;4.47;1.47;;;14.70;69.20;;;15.02;62.34;101158.34;5038299;28;20547;-72
2022/05/22 08:02:32;;;;;;;2.23;1.00;;;14.70;74.60;;;15.03;61.56;101155.41;5039280;28;20481;-72
2022/05/22 08:05:01;;;;;;;4.43;1.97;;;14.80;69.10;;;14.96;61.26;101154.63;5023135;28;20947;-73
2022/05/22 08:07:39;;;;;;;5.90;1.47;;;14.70;65.50;;;15.04;61.01;101156.25;5039243;28;20443;-72
2022/05/22 08:10:18;;;;;;;1.77;1.50;;;14.90;62.20;;;15.20;60.89;101145.56;5040571;28;20439;-73
2022/05/22 08:12:53;;;;;;;3.83;1.10;;;15.00;62.60;;;15.38;60.80;101135.75;5029704;28;20462;-73
2022/05/22 08:15:30;;;;;;;3.43;1.23;;;15.00;63.80;;;15.35;59.73;101128.00;5040483;28;20462;-71
2022/05/22 08:18:14;;;;;;;3.37;1.80;;;15.10;56.40;;;15.40;59.44;101126.25;5033526;28;20448;-72
2022/05/22 08:20:46;;;;;;;2.07;1.20;;;15.20;53.60;;;15.45;59.67;101131.03;5019825;28;20471;-73
2022/05/22 08:23:21;;;;;;;3.10;1.57;;;15.20;54.30;;;15.47;59.55;101131.66;5036247;28;20997;-73
2022/05/22 08:26:17;;;;;;;2.77;1.50;;;15.30;53.50;;;15.29;60.39;101131.66;5024711;28;20546;-72
2022/05/22 08:28:47;;;;;;;1.80;1.57;;;15.20;55.70;;;15.46;60.06;101133.53;5025637;28;20472;-73
2022/05/22 08:31:17;;;;;;;3.10;1.40;;;15.20;56.10;;;15.62;59.29;101132.97;5044967;28;20541;-73
2022/05/22 08:33:51;;;;;;;5.07;1.80;;;15.50;53.10;;;16.00;57.78;101134.53;5028454;28;20448;-73
2022/05/22 08:36:20;;;;;;;11.60;1.97;;;15.80;48.10;;;16.46;57.28;101137.38;5036269;28;20427;-74
2022/05/22 08:38:49;;;;;;;4.73;2.13;;;16.00;46.70;;;16.43;56.99;101137.03;5040201;28;20515;-72
2022/05/22 08:41:23;;;;;;;6.53;2.33;;;16.20;43.70;;;17.08;55.49;101134.25;5034654;28;20467;-72
2022/05/22 08:44:07;;;;;;;3.80;1.93;;;16.50;40.30;;;17.27;55.70;101133.03;5033443;28;20901;-71
2022/05/22 08:46:57;;;;;;;1.80;1.40;;;16.60;40.30;;;17.42;53.84;101132.53;5039225;28;20807;-72
2022/05/22 08:49:37;;;;;;;6.83;2.23;;;16.80;33.70;;;17.52;53.85;101136.31;5041035;28;20431;-74
2022/05/22 08:52:17;;;;;;;2.37;1.03;;;17.10;32.20;;;17.75;54.40;101143.66;5036821;28;20430;-72
2022/05/22 08:54:58;;;;;;;4.57;1.37;;;17.20;32.20;;;17.96;52.13;101134.75;5035339;28;20428;-73
2022/05/22 09:00:57;;;;;;;6.23;1.50;;;17.20;24.10;;;17.53;53.01;101135.22;5013084;28;20442;-73
2022/05/22 09:03:37;;;;;;;3.80;1.47;;;17.20;25.30;;;17.79;53.18;101129.22;5029476;28;20471;-73
2022/05/22 09:06:08;;;;;;;2.80;1.43;;;17.50;25.40;;;18.23;52.12;101134.97;5041756;28;20444;-72
2022/05/22 09:08:44;;;;;;;2.43;1.20;;;17.50;25.00;;;17.88;52.49;101134.31;5041688;28;20444;-71
2022/05/22 09:11:31;;;;;;;4.00;1.23;;;17.40;23.40;;;17.97;51.72;101127.34;5033954;28;20822;-71
2022/05/22 09:14:09;;;;;;;1.57;1.13;;;17.50;22.20;;;17.63;53.33;101129.16;5038364;28;20461;-73
2022/05/22 09:16:48;;;;;;;2.00;1.17;;;17.50;23.20;;;17.66;53.10;101128.69;5024051;28;20427;-73
2022/05/22 09:19:27;;;;;;;2.17;1.10;;;17.30;24.10;;;17.19;53.50;101120.53;5036190;28;20443;-71
2022/05/22 09:22:10;;;;;;;1.50;1.10;;;17.10;23.10;;;16.73;54.83;101124.16;5035826;28;20550;-73
2022/05/22 09:24:52;;;;;;;2.90;1.10;;;16.80;24.20;;;16.77;54.90;101119.88;5045769;28;20440;-72
2022/05/22 09:27:33;;;;;;;3.23;1.23;;;16.70;25.00;;;17.13;54.15;101129.72;5048044;28;20419;-72
2022/05/22 09:30:07;;;;;;;4.77;1.50;;;16.70;25.50;;;17.41;53.68;101131.69;5032947;28;20439;-72
2022/05/22 09:32:57;;;;;;;2.40;1.53;;;17.10;25.10;;;17.19;53.07;101126.00;5041662;28;20444;-72
2022/05/22 09:35:44;;;;;;;1.27;1.00;;;17.00;22.50;;;17.42;52.92;101138.84;5045239;28;20436;-72
2022/05/22 09:38:37;;;;;;;1.50;1.00;;;17.10;22.70;;;17.57;51.99;101128.19;5041889;28;20418;-72
2022/05/22 09:41:24;;;;;;;4.17;1.40;;;17.30;21.00;;;17.76;51.96;101129.72;5040802;28;20493;-72
2022/05/22 09:44:34;;;;;;;2.83;1.63;;;17.40;20.80;;;17.98;51.73;101127.13;5037748;28;20481;-72
2022/05/22 09:48:06;;;;;;;6.57;1.33;;;17.40;21.20;;;18.94;50.12;101125.19;5029835;28;20471;-72
2022/05/22 09:51:00;;;;;;;1.60;1.10;;;18.00;21.20;;;18.37;49.72;101130.84;5027711;28;20468;-72
2022/05/22 09:53:53;;;;;;;2.47;1.30;;;18.20;16.90;;;18.09;49.61;101133.63;5034239;28;20435;-73
2022/05/22 09:56:58;;;;;;;2.00;1.23;;;18.00;14.90;;;17.43;50.93;101137.75;5035429;28;20432;-73
2022/05/22 09:59:56;;;;;;;1.97;0.80;;;17.60;15.70;;;17.12;51.57;101141.72;5039556;28;20494;-73
2022/05/22 10:02:40;;;;;;;1.47;1.10;;;17.20;15.80;;;17.23;51.09;101131.88;5032284;28;20455;-72
2022/05/22 10:05:27;;;;;;;1.53;1.13;;;17.10;16.20;;;17.01;51.62;101142.56;5031381;28;20523;-71
2022/05/22 10:08:14;;;;;;;5.77;1.53;;;16.90;16.70;;;16.59;52.40;101141.84;5037382;28;20501;-73
2022/05/22 10:10:58;;;;;;;2.40;1.40;;;16.70;17.30;;;16.92;52.62;101144.00;5036432;28;20444;-72
2022/05/22 10:13:41;;;;;;;1.20;0.87;;;16.60;18.90;;;17.67;50.62;101130.38;5032612;28;20779;-71
2022/05/22 10:16:29;;;;;;;3.63;1.80;;;17.10;17.30;;;17.96;50.08;101140.22;5031764;28;20464;-74
2022/05/22 10:19:20;;;;;;;2.30;0.90;;;17.60;16.40;;;18.59;48.59;101129.03;5039333;28;20832;-72
2022/05/22 10:21:56;;;;;;;2.80;1.37;;;18.10;14.40;;;19.61;45.24;101136.00;5028921;28;20820;-72
2022/05/22 10:24:51;;;;;;;2.17;0.90;;;19.00;11.60;;;19.35;44.25;101143.91;5032087;28;20507;-72
2022/05/22 10:27:46;;;;;;;1.50;0.87;;;19.20;6.80;;;19.47;44.92;101135.56;5029087;28;20412;-72
2022/05/22 10:30:21;;;;;;;2.00;1.00;;;18.90;7.00;;;19.09;45.17;101129.00;5045267;28;20429;-75
2022/05/22 10:32:58;;;;;;;1.43;1.00;;;18.80;6.40;;;18.55;46.77;101141.59;5040534;28;20810;-71
2022/05/22 10:35:33;;;;;;;1.60;1.00;;;18.60;7.40;;;18.20;48.16;101144.50;5032417;28;20406;-74
2022/05/22 10:38:10;;;;;;;2.63;0.97;;;18.30;8.70;;;17.98;49.14;101151.75;5037707;28;20448;-72
2022/05/22 10:43:38;;;;;;;3.73;1.30;;;17.70;10.20;;;17.71;49.71;101142.47;5039303;28;20932;-72
2022/05/22 10:46:07;;;;;;;2.23;1.03;;;17.60;11.00;;;18.28;48.86;101135.06;5031766;28;20415;-72
2022/05/22 10:48:47;;;;;;;3.60;0.97;;;17.90;11.30;;;18.83;48.11;101143.41;5041193;28;20805;-71
2022/05/22 10:51:25;;;;;;;4.13;1.00;;;18.30;11.20;;;18.77;47.24;101138.09;5033811;28;20468;-72
2022/05/22 10:53:58;;;;;;;4.63;1.57;;;18.40;9.00;;;19.17;46.68;101138.69;5043999;28;20798;-72
2022/05/22 10:56:31;;;;;;;2.30;0.83;;;18.70;8.90;;;18.77;46.51;101143.59;5034088;28;20436;-72
2022/05/22 10:59:05;;;;;;;1.63;1.10;;;18.60;7.30;;;18.58;48.01;101143.84;5053866;28;20421;-72
2022/05/22 11:01:37;;;;;;;1.73;0.90;;;18.30;9.30;;;18.84;47.10;101142.31;5047960;28;20480;-73
2022/05/22 11:04:09;;;;;;;2.33;1.00;;;18.40;8.50;;;18.59;47.42;101140.00;5043676;28;20450;-72
2022/05/22 11:06:52;;;;;;;2.53;1.50;;;18.50;8.30;;;18.19;48.46;101136.56;5038097;28;20795;-73
2022/05/22 11:09:27;;;;;;;3.13;1.60;;;18.30;8.60;;;19.14;47.80;101136.47;5045082;28;20475;-71